Atwood, Wisconsin
Current Conditions -  °F | °C
As of 3:55 PM on Monday 22 Dec 2014 (Local Time) from KMDZ Reporting Station
Haze Haze  
Wind Chill: 27°   Ceiling: 900
Heat Index: 33°   Visibility: 5mi
Dew Point: 31°   Wind: 7mph
Humidity: 92%   Direction: 110°ESE
Pressure: 29.7"   Gusts: NA
Location:  44.9782°N, 90.5368°W
Report Text: KMDZ 222155Z AUTO 11006KT 5SM BR BKN009 OVC033 01/M01 A2970 RMK AO2 T00061006
Loading
Personal Weather Stations






























Interactive Weather Map New forecast layout! Learn more

10-Day Weather Forecast

Advertisements
Track Severe Weather on mobile